sensor_id;sensor_type;location;lat;lon;timestamp;P1;durP1;ratioP1;P2;durP2;ratioP2
34403;SDS011;23116;47.660;9.126;2024-03-08T02:00:42;9.70;;;7.38;;
34403;SDS011;23116;47.660;9.126;2024-03-08T02:03:31;10.38;;;8.25;;
34403;SDS011;23116;47.660;9.126;2024-03-08T02:06:18;10.80;;;8.88;;
34403;SDS011;23116;47.660;9.126;2024-03-08T02:09:04;10.45;;;8.90;;
34403;SDS011;23116;47.660;9.126;2024-03-08T02:11:52;8.85;;;7.20;;
34403;SDS011;23116;47.660;9.126;2024-03-08T02:14:40;12.23;;;9.32;;
34403;SDS011;23116;47.660;9.126;2024-03-08T02:17:26;11.23;;;8.98;;
34403;SDS011;23116;47.660;9.126;2024-03-08T02:20:13;11.05;;;9.77;;
34403;SDS011;23116;47.660;9.126;2024-03-08T02:23:00;12.25;;;9.98;;
34403;SDS011;23116;47.660;9.126;2024-03-08T02:25:47;13.15;;;10.50;;
34403;SDS011;23116;47.660;9.126;2024-03-08T02:28:35;11.27;;;9.95;;
34403;SDS011;23116;47.660;9.126;2024-03-08T02:31:22;9.70;;;7.93;;
34403;SDS011;23116;47.660;9.126;2024-03-08T02:34:08;10.77;;;9.68;;
34403;SDS011;23116;47.660;9.126;2024-03-08T02:36:55;10.77;;;9.20;;
34403;SDS011;23116;47.660;9.126;2024-03-08T02:39:42;10.20;;;7.93;;
34403;SDS011;23116;47.660;9.126;2024-03-08T02:42:29;11.73;;;9.07;;
34403;SDS011;23116;47.660;9.126;2024-03-08T02:45:16;12.65;;;10.07;;
34403;SDS011;23116;47.660;9.126;2024-03-08T02:48:03;9.85;;;8.57;;
34403;SDS011;23116;47.660;9.126;2024-03-08T02:50:52;11.18;;;8.77;;
34403;SDS011;23116;47.660;9.126;2024-03-08T02:53:39;10.60;;;8.32;;
34403;SDS011;23116;47.660;9.126;2024-03-08T02:56:25;10.57;;;9.05;;
34403;SDS011;23116;47.660;9.126;2024-03-08T02:59:12;12.52;;;9.32;;
34403;SDS011;23116;47.660;9.126;2024-03-08T03:02:00;11.18;;;9.70;;
34403;SDS011;23116;47.660;9.126;2024-03-08T03:04:46;9.30;;;7.07;;
34403;SDS011;23116;47.660;9.126;2024-03-08T03:07:33;9.73;;;7.70;;
34403;SDS011;23116;47.660;9.126;2024-03-08T03:10:21;10.50;;;9.30;;
34403;SDS011;23116;47.660;9.126;2024-03-08T03:13:08;9.63;;;8.07;;
34403;SDS011;23116;47.660;9.126;2024-03-08T03:15:54;10.98;;;8.75;;
34403;SDS011;23116;47.660;9.126;2024-03-08T03:18:43;9.75;;;8.50;;
34403;SDS011;23116;47.660;9.126;2024-03-08T03:21:30;9.65;;;7.30;;
34403;SDS011;23116;47.660;9.126;2024-03-08T03:24:17;9.10;;;7.60;;
34403;SDS011;23116;47.660;9.126;2024-03-08T03:27:06;11.13;;;8.57;;
34403;SDS011;23116;47.660;9.126;2024-03-08T03:29:56;11.38;;;8.20;;
34403;SDS011;23116;47.660;9.126;2024-03-08T03:32:43;11.02;;;8.35;;
34403;SDS011;23116;47.660;9.126;2024-03-08T03:35:32;9.32;;;6.90;;
34403;SDS011;23116;47.660;9.126;2024-03-08T03:38:19;10.68;;;8.48;;
34403;SDS011;23116;47.660;9.126;2024-03-08T03:41:08;10.30;;;8.32;;
34403;SDS011;23116;47.660;9.126;2024-03-08T03:43:55;10.57;;;8.52;;
34403;SDS011;23116;47.660;9.126;2024-03-08T03:46:43;10.60;;;8.95;;
34403;SDS011;23116;47.660;9.126;2024-03-08T03:49:29;11.40;;;9.10;;
34403;SDS011;23116;47.660;9.126;2024-03-08T03:52:16;11.38;;;10.10;;
34403;SDS011;23116;47.660;9.126;2024-03-08T03:55:03;10.43;;;9.18;;
34403;SDS011;23116;47.660;9.126;2024-03-08T03:57:51;11.50;;;8.45;;
34403;SDS011;23116;47.660;9.126;2024-03-08T04:00:38;10.05;;;7.57;;
34403;SDS011;23116;47.660;9.126;2024-03-08T04:03:26;12.45;;;10.15;;
34403;SDS011;23116;47.660;9.126;2024-03-08T04:06:12;11.07;;;9.30;;
34403;SDS011;23116;47.660;9.126;2024-03-08T04:08:59;9.90;;;7.63;;
34403;SDS011;23116;47.660;9.126;2024-03-08T04:11:46;10.45;;;8.50;;
34403;SDS011;23116;47.660;9.126;2024-03-08T04:14:33;11.13;;;9.27;;
34403;SDS011;23116;47.660;9.126;2024-03-08T04:17:21;9.05;;;7.97;;
34403;SDS011;23116;47.660;9.126;2024-03-08T04:20:09;10.52;;;9.43;;
34403;SDS011;23116;47.660;9.126;2024-03-08T04:22:57;12.27;;;10.23;;
34403;SDS011;23116;47.660;9.126;2024-03-08T04:25:44;11.75;;;8.25;;
34403;SDS011;23116;47.660;9.126;2024-03-08T04:28:31;11.60;;;9.77;;
34403;SDS011;23116;47.660;9.126;2024-03-08T04:31:18;13.35;;;11.23;;
34403;SDS011;23116;47.660;9.126;2024-03-08T04:34:08;14.07;;;11.65;;
34403;SDS011;23116;47.660;9.126;2024-03-08T04:36:56;14.93;;;12.02;;
34403;SDS011;23116;47.660;9.126;2024-03-08T04:39:43;13.55;;;10.70;;
34403;SDS011;23116;47.660;9.126;2024-03-08T04:42:30;13.88;;;11.73;;
34403;SDS011;23116;47.660;9.126;2024-03-08T04:45:18;14.57;;;11.68;;
34403;SDS011;23116;47.660;9.126;2024-03-08T04:48:05;13.05;;;10.60;;
34403;SDS011;23116;47.660;9.126;2024-03-08T04:50:53;11.80;;;9.77;;
34403;SDS011;23116;47.660;9.126;2024-03-08T04:53:41;12.20;;;9.98;;
34403;SDS011;23116;47.660;9.126;2024-03-08T04:56:28;10.55;;;8.52;;
34403;SDS011;23116;47.660;9.126;2024-03-08T04:59:15;11.38;;;9.90;;
34403;SDS011;23116;47.660;9.126;2024-03-08T05:02:01;12.20;;;10.88;;
34403;SDS011;23116;47.660;9.126;2024-03-08T05:04:48;12.73;;;11.32;;
34403;SDS011;23116;47.660;9.126;2024-03-08T05:07:36;12.88;;;10.27;;
34403;SDS011;23116;47.660;9.126;2024-03-08T05:10:23;14.02;;;11.60;;
34403;SDS011;23116;47.660;9.126;2024-03-08T05:13:09;14.55;;;12.13;;
34403;SDS011;23116;47.660;9.126;2024-03-08T05:15:58;14.27;;;12.68;;
34403;SDS011;23116;47.660;9.126;2024-03-08T05:18:45;14.63;;;11.43;;
34403;SDS011;23116;47.660;9.126;2024-03-08T05:21:32;13.52;;;11.75;;
34403;SDS011;23116;47.660;9.126;2024-03-08T05:24:18;14.77;;;12.80;;
34403;SDS011;23116;47.660;9.126;2024-03-08T05:27:05;12.75;;;11.40;;
34403;SDS011;23116;47.660;9.126;2024-03-08T05:29:52;13.32;;;11.35;;
34403;SDS011;23116;47.660;9.126;2024-03-08T05:32:39;14.02;;;10.68;;
34403;SDS011;23116;47.660;9.126;2024-03-08T05:35:30;12.80;;;10.95;;
34403;SDS011;23116;47.660;9.126;2024-03-08T05:38:17;14.50;;;12.20;;
34403;SDS011;23116;47.660;9.126;2024-03-08T05:41:05;12.80;;;10.57;;
34403;SDS011;23116;47.660;9.126;2024-03-08T05:43:53;13.63;;;12.10;;
34403;SDS011;23116;47.660;9.126;2024-03-08T05:46:40;12.80;;;10.98;;
34403;SDS011;23116;47.660;9.126;2024-03-08T05:49:26;13.68;;;10.80;;
34403;SDS011;23116;47.660;9.126;2024-03-08T05:52:13;12.70;;;9.80;;
34403;SDS011;23116;47.660;9.126;2024-03-08T05:55:00;12.80;;;10.48;;
34403;SDS011;23116;47.660;9.126;2024-03-08T05:57:48;12.63;;;9.00;;
34403;SDS011;23116;47.660;9.126;2024-03-08T06:00:35;11.77;;;9.60;;
34403;SDS011;23116;47.660;9.126;2024-03-08T06:03:21;12.75;;;9.75;;
34403;SDS011;23116;47.660;9.126;2024-03-08T06:06:08;13.13;;;10.63;;
34403;SDS011;23116;47.660;9.126;2024-03-08T06:08:55;12.02;;;10.05;;
34403;SDS011;23116;47.660;9.126;2024-03-08T06:11:44;12.27;;;10.20;;
34403;SDS011;23116;47.660;9.126;2024-03-08T06:14:30;10.73;;;9.05;;
34403;SDS011;23116;47.660;9.126;2024-03-08T06:17:17;12.77;;;10.57;;
34403;SDS011;23116;47.660;9.126;2024-03-08T06:20:04;14.00;;;11.65;;
34403;SDS011;23116;47.660;9.126;2024-03-08T06:22:55;13.68;;;11.32;;
34403;SDS011;23116;47.660;9.126;2024-03-08T06:25:42;14.95;;;11.27;;
34403;SDS011;23116;47.660;9.126;2024-03-08T06:28:30;15.38;;;12.23;;
34403;SDS011;23116;47.660;9.126;2024-03-08T06:31:17;13.45;;;11.02;;
34403;SDS011;23116;47.660;9.126;2024-03-08T06:34:05;14.23;;;11.65;;
34403;SDS011;23116;47.660;9.126;2024-03-08T06:36:53;15.27;;;12.10;;
34403;SDS011;23116;47.660;9.126;2024-03-08T06:39:46;15.60;;;12.10;;
34403;SDS011;23116;47.660;9.126;2024-03-08T06:42:40;14.98;;;10.82;;
34403;SDS011;23116;47.660;9.126;2024-03-08T06:45:28;13.68;;;11.50;;
34403;SDS011;23116;47.660;9.126;2024-03-08T06:48:18;15.63;;;12.73;;
34403;SDS011;23116;47.660;9.126;2024-03-08T06:51:05;15.43;;;12.85;;
34403;SDS011;23116;47.660;9.126;2024-03-08T06:53:52;15.00;;;12.25;;
34403;SDS011;23116;47.660;9.126;2024-03-08T06:56:39;16.40;;;12.85;;
34403;SDS011;23116;47.660;9.126;2024-03-08T06:59:26;16.27;;;12.45;;
34403;SDS011;23116;47.660;9.126;2024-03-08T07:02:13;13.85;;;11.80;;
34403;SDS011;23116;47.660;9.126;2024-03-08T07:05:00;13.63;;;10.07;;
34403;SDS011;23116;47.660;9.126;2024-03-08T07:07:49;11.80;;;10.30;;
34403;SDS011;23116;47.660;9.126;2024-03-08T07:10:36;13.77;;;9.90;;
34403;SDS011;23116;47.660;9.126;2024-03-08T07:13:23;13.68;;;10.75;;
34403;SDS011;23116;47.660;9.126;2024-03-08T07:16:10;15.45;;;12.50;;
34403;SDS011;23116;47.660;9.126;2024-03-08T07:18:57;14.77;;;12.60;;
34403;SDS011;23116;47.660;9.126;2024-03-08T07:21:44;15.68;;;11.75;;
34403;SDS011;23116;47.660;9.126;2024-03-08T07:24:32;14.73;;;10.55;;
34403;SDS011;23116;47.660;9.126;2024-03-08T07:27:39;12.75;;;10.45;;
34403;SDS011;23116;47.660;9.126;2024-03-08T07:30:26;13.68;;;10.32;;
34403;SDS011;23116;47.660;9.126;2024-03-08T07:33:28;14.10;;;11.50;;
34403;SDS011;23116;47.660;9.126;2024-03-08T07:36:16;14.48;;;10.85;;
34403;SDS011;23116;47.660;9.126;2024-03-08T07:39:02;14.55;;;11.57;;
34403;SDS011;23116;47.660;9.126;2024-03-08T07:41:56;12.88;;;10.75;;
34403;SDS011;23116;47.660;9.126;2024-03-08T07:44:43;16.15;;;11.18;;
34403;SDS011;23116;47.660;9.126;2024-03-08T07:47:31;13.70;;;10.93;;
34403;SDS011;23116;47.660;9.126;2024-03-08T07:50:19;11.63;;;9.82;;
34403;SDS011;23116;47.660;9.126;2024-03-08T07:53:08;10.35;;;8.60;;
34403;SDS011;23116;47.660;9.126;2024-03-08T07:55:55;12.27;;;10.98;;
34403;SDS011;23116;47.660;9.126;2024-03-08T07:58:42;9.95;;;8.77;;
34403;SDS011;23116;47.660;9.126;2024-03-08T08:01:29;10.52;;;8.85;;
34403;SDS011;23116;47.660;9.126;2024-03-08T08:04:15;10.80;;;8.63;;
34403;SDS011;23116;47.660;9.126;2024-03-08T08:07:03;11.35;;;9.35;;
34403;SDS011;23116;47.660;9.126;2024-03-08T08:09:52;13.73;;;11.15;;
34403;SDS011;23116;47.660;9.126;2024-03-08T08:12:39;14.30;;;10.98;;
34403;SDS011;23116;47.660;9.126;2024-03-08T08:15:27;10.85;;;9.32;;
34403;SDS011;23116;47.660;9.126;2024-03-08T08:18:13;10.35;;;9.23;;
34403;SDS011;23116;47.660;9.126;2024-03-08T08:21:00;13.55;;;10.18;;
34403;SDS011;23116;47.660;9.126;2024-03-08T08:23:48;13.25;;;10.30;;
34403;SDS011;23116;47.660;9.126;2024-03-08T08:26:35;10.38;;;8.48;;
34403;SDS011;23116;47.660;9.126;2024-03-08T08:29:21;11.95;;;8.43;;
34403;SDS011;23116;47.660;9.126;2024-03-08T08:32:08;11.35;;;9.15;;
34403;SDS011;23116;47.660;9.126;2024-03-08T08:34:56;12.13;;;10.18;;
34403;SDS011;23116;47.660;9.126;2024-03-08T08:37:45;10.25;;;8.95;;
34403;SDS011;23116;47.660;9.126;2024-03-08T08:40:32;11.20;;;8.23;;
34403;SDS011;23116;47.660;9.126;2024-03-08T08:43:22;12.57;;;10.68;;
34403;SDS011;23116;47.660;9.126;2024-03-08T08:46:10;13.43;;;10.90;;
34403;SDS011;23116;47.660;9.126;2024-03-08T08:48:58;12.93;;;10.30;;
34403;SDS011;23116;47.660;9.126;2024-03-08T08:51:48;12.80;;;10.65;;
34403;SDS011;23116;47.660;9.126;2024-03-08T08:54:35;12.70;;;10.00;;
34403;SDS011;23116;47.660;9.126;2024-03-08T08:57:22;12.68;;;10.02;;
34403;SDS011;23116;47.660;9.126;2024-03-08T09:00:09;11.23;;;8.45;;
34403;SDS011;23116;47.660;9.126;2024-03-08T09:03:01;12.32;;;9.95;;
34403;SDS011;23116;47.660;9.126;2024-03-08T09:05:48;10.60;;;7.90;;
34403;SDS011;23116;47.660;9.126;2024-03-08T09:08:34;10.75;;;9.45;;
34403;SDS011;23116;47.660;9.126;2024-03-08T09:11:23;12.18;;;10.10;;
34403;SDS011;23116;47.660;9.126;2024-03-08T09:14:12;12.82;;;9.57;;
34403;SDS011;23116;47.660;9.126;2024-03-08T09:16:59;11.00;;;8.85;;
34403;SDS011;23116;47.660;9.126;2024-03-08T09:19:47;12.02;;;9.38;;
34403;SDS011;23116;47.660;9.126;2024-03-08T09:22:34;12.32;;;10.00;;
34403;SDS011;23116;47.660;9.126;2024-03-08T09:25:21;11.00;;;9.13;;
34403;SDS011;23116;47.660;9.126;2024-03-08T09:28:08;12.00;;;9.88;;
34403;SDS011;23116;47.660;9.126;2024-03-08T09:30:57;12.40;;;10.02;;
34403;SDS011;23116;47.660;9.126;2024-03-08T09:33:44;12.73;;;9.38;;
34403;SDS011;23116;47.660;9.126;2024-03-08T09:36:31;11.73;;;9.38;;
34403;SDS011;23116;47.660;9.126;2024-03-08T09:39:18;12.18;;;8.90;;
34403;SDS011;23116;47.660;9.126;2024-03-08T09:42:06;9.35;;;7.85;;
34403;SDS011;23116;47.660;9.126;2024-03-08T09:44:52;10.02;;;8.60;;
34403;SDS011;23116;47.660;9.126;2024-03-08T09:47:40;11.15;;;9.15;;
34403;SDS011;23116;47.660;9.126;2024-03-08T09:50:30;9.38;;;7.65;;
34403;SDS011;23116;47.660;9.126;2024-03-08T09:53:18;11.20;;;9.25;;
34403;SDS011;23116;47.660;9.126;2024-03-08T09:56:05;11.30;;;8.98;;
34403;SDS011;23116;47.660;9.126;2024-03-08T09:58:52;9.45;;;7.40;;
34403;SDS011;23116;47.660;9.126;2024-03-08T10:01:51;11.07;;;9.45;;
34403;SDS011;23116;47.660;9.126;2024-03-08T10:04:41;11.07;;;8.75;;
34403;SDS011;23116;47.660;9.126;2024-03-08T10:07:29;11.45;;;8.30;;
34403;SDS011;23116;47.660;9.126;2024-03-08T10:10:15;10.07;;;8.25;;
34403;SDS011;23116;47.660;9.126;2024-03-08T10:13:05;12.13;;;9.73;;
34403;SDS011;23116;47.660;9.126;2024-03-08T10:15:53;11.48;;;9.45;;
34403;SDS011;23116;47.660;9.126;2024-03-08T10:18:40;11.52;;;8.45;;
34403;SDS011;23116;47.660;9.126;2024-03-08T10:21:27;11.32;;;9.30;;
34403;SDS011;23116;47.660;9.126;2024-03-08T10:24:14;12.90;;;9.38;;
34403;SDS011;23116;47.660;9.126;2024-03-08T10:27:01;8.50;;;7.60;;
34403;SDS011;23116;47.660;9.126;2024-03-08T10:29:49;10.55;;;8.38;;
34403;SDS011;23116;47.660;9.126;2024-03-08T10:32:37;9.93;;;8.38;;
34403;SDS011;23116;47.660;9.126;2024-03-08T10:35:25;10.82;;;9.00;;
34403;SDS011;23116;47.660;9.126;2024-03-08T10:38:12;10.23;;;8.88;;
34403;SDS011;23116;47.660;9.126;2024-03-08T10:41:04;8.63;;;7.60;;
34403;SDS011;23116;47.660;9.126;2024-03-08T10:53:07;11.00;;;9.45;;
34403;SDS011;23116;47.660;9.126;2024-03-08T10:55:56;8.88;;;7.63;;
34403;SDS011;23116;47.660;9.126;2024-03-08T10:58:43;9.65;;;8.23;;
34403;SDS011;23116;47.660;9.126;2024-03-08T11:01:31;10.15;;;9.05;;
34403;SDS011;23116;47.660;9.126;2024-03-08T11:04:18;9.50;;;6.53;;
34403;SDS011;23116;47.660;9.126;2024-03-08T11:07:08;9.15;;;7.90;;
34403;SDS011;23116;47.660;9.126;2024-03-08T11:10:02;10.35;;;8.52;;
34403;SDS011;23116;47.660;9.126;2024-03-08T11:12:56;10.75;;;8.95;;
34403;SDS011;23116;47.660;9.126;2024-03-08T11:15:43;9.48;;;7.78;;
34403;SDS011;23116;47.660;9.126;2024-03-08T11:18:33;10.20;;;8.25;;
34403;SDS011;23116;47.660;9.126;2024-03-08T11:21:20;11.10;;;8.48;;
34403;SDS011;23116;47.660;9.126;2024-03-08T11:24:12;9.05;;;7.75;;
34403;SDS011;23116;47.660;9.126;2024-03-08T11:26:59;9.32;;;8.30;;
34403;SDS011;23116;47.660;9.126;2024-03-08T11:29:59;7.95;;;7.15;;
34403;SDS011;23116;47.660;9.126;2024-03-08T11:32:57;7.78;;;6.78;;
34403;SDS011;23116;47.660;9.126;2024-03-08T11:35:48;9.80;;;8.23;;
34403;SDS011;23116;47.660;9.126;2024-03-08T11:38:39;8.50;;;7.57;;
34403;SDS011;23116;47.660;9.126;2024-03-08T11:41:27;6.70;;;5.40;;
34403;SDS011;23116;47.660;9.126;2024-03-08T11:44:16;7.97;;;6.70;;
34403;SDS011;23116;47.660;9.126;2024-03-08T11:47:07;9.60;;;7.63;;
34403;SDS011;23116;47.660;9.126;2024-03-08T11:49:59;8.85;;;7.50;;
34403;SDS011;23116;47.660;9.126;2024-03-08T11:52:49;8.93;;;6.88;;
34403;SDS011;23116;47.660;9.126;2024-03-08T11:55:35;8.60;;;6.82;;
34403;SDS011;23116;47.660;9.126;2024-03-08T11:58:23;7.20;;;6.25;;
34403;SDS011;23116;47.660;9.126;2024-03-08T12:01:10;7.80;;;6.97;;
34403;SDS011;23116;47.660;9.126;2024-03-08T12:03:57;8.38;;;6.80;;
34403;SDS011;23116;47.660;9.126;2024-03-08T12:06:45;8.90;;;6.82;;
34403;SDS011;23116;47.660;9.126;2024-03-08T12:09:33;7.25;;;6.55;;
34403;SDS011;23116;47.660;9.126;2024-03-08T12:12:24;8.20;;;7.30;;
34403;SDS011;23116;47.660;9.126;2024-03-08T12:15:10;8.18;;;7.32;;
34403;SDS011;23116;47.660;9.126;2024-03-08T12:17:58;9.52;;;7.57;;
34403;SDS011;23116;47.660;9.126;2024-03-08T12:20:45;9.23;;;7.22;;
34403;SDS011;23116;47.660;9.126;2024-03-08T12:23:35;7.30;;;6.60;;
34403;SDS011;23116;47.660;9.126;2024-03-08T12:26:24;8.85;;;7.10;;
34403;SDS011;23116;47.660;9.126;2024-03-08T12:29:14;8.35;;;6.72;;
34403;SDS011;23116;47.660;9.126;2024-03-08T12:32:07;8.68;;;6.85;;
34403;SDS011;23116;47.660;9.126;2024-03-08T12:34:56;8.55;;;7.32;;
34403;SDS011;23116;47.660;9.126;2024-03-08T12:37:43;8.95;;;7.45;;
34403;SDS011;23116;47.660;9.126;2024-03-08T12:40:30;8.32;;;7.43;;
34403;SDS011;23116;47.660;9.126;2024-03-08T12:43:19;9.27;;;7.80;;
34403;SDS011;23116;47.660;9.126;2024-03-08T12:46:06;9.80;;;8.18;;
34403;SDS011;23116;47.660;9.126;2024-03-08T12:48:54;9.65;;;8.48;;
34403;SDS011;23116;47.660;9.126;2024-03-08T12:51:41;8.27;;;6.47;;
34403;SDS011;23116;47.660;9.126;2024-03-08T12:54:31;7.72;;;6.93;;
34403;SDS011;23116;47.660;9.126;2024-03-08T12:57:18;9.52;;;8.52;;
34403;SDS011;23116;47.660;9.126;2024-03-08T13:00:05;9.32;;;8.07;;
34403;SDS011;23116;47.660;9.126;2024-03-08T13:02:58;8.38;;;7.32;;
34403;SDS011;23116;47.660;9.126;2024-03-08T13:05:44;9.35;;;7.65;;
34403;SDS011;23116;47.660;9.126;2024-03-08T13:08:36;9.52;;;8.35;;
34403;SDS011;23116;47.660;9.126;2024-03-08T13:11:26;10.10;;;8.90;;
34403;SDS011;23116;47.660;9.126;2024-03-08T13:14:13;10.25;;;8.43;;
34403;SDS011;23116;47.660;9.126;2024-03-08T13:17:00;9.38;;;8.32;;
34403;SDS011;23116;47.660;9.126;2024-03-08T13:19:49;8.32;;;7.13;;
34403;SDS011;23116;47.660;9.126;2024-03-08T13:22:36;8.57;;;7.68;;
34403;SDS011;23116;47.660;9.126;2024-03-08T13:25:22;11.55;;;8.82;;
34403;SDS011;23116;47.660;9.126;2024-03-08T13:28:09;10.15;;;8.63;;
34403;SDS011;23116;47.660;9.126;2024-03-08T13:30:56;10.85;;;8.45;;
34403;SDS011;23116;47.660;9.126;2024-03-08T13:33:43;10.18;;;7.50;;
34403;SDS011;23116;47.660;9.126;2024-03-08T13:36:32;9.85;;;8.13;;
34403;SDS011;23116;47.660;9.126;2024-03-08T13:39:24;9.35;;;8.20;;
34403;SDS011;23116;47.660;9.126;2024-03-08T13:42:12;10.40;;;8.45;;
34403;SDS011;23116;47.660;9.126;2024-03-08T13:45:01;7.97;;;7.18;;
34403;SDS011;23116;47.660;9.126;2024-03-08T13:47:50;9.02;;;7.57;;
34403;SDS011;23116;47.660;9.126;2024-03-08T13:50:39;8.85;;;7.57;;
34403;SDS011;23116;47.660;9.126;2024-03-08T13:53:26;9.10;;;6.72;;
34403;SDS011;23116;47.660;9.126;2024-03-08T13:56:13;8.07;;;7.28;;
34403;SDS011;23116;47.660;9.126;2024-03-08T13:59:00;8.63;;;7.75;;
34403;SDS011;23116;47.660;9.126;2024-03-08T14:01:47;7.22;;;6.40;;
34403;SDS011;23116;47.660;9.126;2024-03-08T14:04:34;7.20;;;6.50;;
34403;SDS011;23116;47.660;9.126;2024-03-08T14:07:25;8.07;;;7.30;;
34403;SDS011;23116;47.660;9.126;2024-03-08T14:10:14;8.07;;;6.95;;
34403;SDS011;23116;47.660;9.126;2024-03-08T14:13:02;7.28;;;6.57;;
34403;SDS011;23116;47.660;9.126;2024-03-08T14:15:50;7.40;;;6.70;;
34403;SDS011;23116;47.660;9.126;2024-03-08T14:18:38;8.68;;;7.72;;
34403;SDS011;23116;47.660;9.126;2024-03-08T14:21:25;8.90;;;7.25;;
34403;SDS011;23116;47.660;9.126;2024-03-08T14:24:11;7.55;;;6.85;;
34403;SDS011;23116;47.660;9.126;2024-03-08T14:27:00;8.38;;;7.57;;
34403;SDS011;23116;47.660;9.126;2024-03-08T14:29:48;7.90;;;7.13;;
34403;SDS011;23116;47.660;9.126;2024-03-08T14:32:35;7.40;;;6.70;;
34403;SDS011;23116;47.660;9.126;2024-03-08T14:35:23;8.77;;;7.80;;
34403;SDS011;23116;47.660;9.126;2024-03-08T14:38:11;8.68;;;7.88;;
34403;SDS011;23116;47.660;9.126;2024-03-08T14:40:58;8.88;;;7.97;;
34403;SDS011;23116;47.660;9.126;2024-03-08T14:43:46;7.22;;;6.53;;
34403;SDS011;23116;47.660;9.126;2024-03-08T14:46:33;8.07;;;7.28;;
34403;SDS011;23116;47.660;9.126;2024-03-08T14:49:20;7.82;;;7.10;;
34403;SDS011;23116;47.660;9.126;2024-03-08T14:52:09;7.47;;;6.72;;
34403;SDS011;23116;47.660;9.126;2024-03-08T14:58:07;9.57;;;8.00;;
34403;SDS011;23116;47.660;9.126;2024-03-08T15:00:54;8.80;;;7.88;;
34403;SDS011;23116;47.660;9.126;2024-03-08T15:03:45;10.02;;;9.02;;
34403;SDS011;23116;47.660;9.126;2024-03-08T15:06:33;10.63;;;9.50;;
34403;SDS011;23116;47.660;9.126;2024-03-08T15:09:22;11.75;;;9.57;;
34403;SDS011;23116;47.660;9.126;2024-03-08T15:12:11;11.07;;;9.90;;
34403;SDS011;23116;47.660;9.126;2024-03-08T15:14:57;11.90;;;10.00;;
34403;SDS011;23116;47.660;9.126;2024-03-08T15:17:44;11.80;;;9.57;;
34403;SDS011;23116;47.660;9.126;2024-03-08T15:20:32;11.95;;;10.38;;
34403;SDS011;23116;47.660;9.126;2024-03-08T15:23:20;9.57;;;8.57;;
34403;SDS011;23116;47.660;9.126;2024-03-08T15:26:07;10.25;;;9.23;;
34403;SDS011;23116;47.660;9.126;2024-03-08T15:28:54;11.10;;;9.63;;
34403;SDS011;23116;47.660;9.126;2024-03-08T15:31:42;10.73;;;9.25;;
34403;SDS011;23116;47.660;9.126;2024-03-08T15:34:28;10.50;;;9.40;;
34403;SDS011;23116;47.660;9.126;2024-03-08T15:37:17;11.02;;;9.40;;
34403;SDS011;23116;47.660;9.126;2024-03-08T15:40:04;11.18;;;9.13;;
34403;SDS011;23116;47.660;9.126;2024-03-08T15:45:44;12.63;;;9.32;;
34403;SDS011;23116;47.660;9.126;2024-03-08T15:48:34;10.68;;;8.95;;
34403;SDS011;23116;47.660;9.126;2024-03-08T15:51:22;11.07;;;8.70;;
34403;SDS011;23116;47.660;9.126;2024-03-08T15:54:09;11.43;;;9.82;;
34403;SDS011;23116;47.660;9.126;2024-03-08T15:56:56;10.95;;;9.63;;
34403;SDS011;23116;47.660;9.126;2024-03-08T15:59:43;12.20;;;9.45;;
34403;SDS011;23116;47.660;9.126;2024-03-08T16:02:31;10.45;;;8.85;;
34403;SDS011;23116;47.660;9.126;2024-03-08T16:05:18;10.70;;;8.98;;
34403;SDS011;23116;47.660;9.126;2024-03-08T16:08:06;10.85;;;9.27;;
34403;SDS011;23116;47.660;9.126;2024-03-08T16:11:00;9.45;;;8.45;;
34403;SDS011;23116;47.660;9.126;2024-03-08T16:13:51;11.48;;;8.75;;
34403;SDS011;23116;47.660;9.126;2024-03-08T16:16:38;10.48;;;9.20;;
34403;SDS011;23116;47.660;9.126;2024-03-08T16:19:24;12.90;;;9.50;;
34403;SDS011;23116;47.660;9.126;2024-03-08T16:22:11;9.75;;;8.45;;
34403;SDS011;23116;47.660;9.126;2024-03-08T16:24:58;8.93;;;8.00;;
34403;SDS011;23116;47.660;9.126;2024-03-08T16:27:45;10.48;;;8.23;;
34403;SDS011;23116;47.660;9.126;2024-03-08T16:30:32;9.93;;;8.25;;
34403;SDS011;23116;47.660;9.126;2024-03-08T16:33:23;9.07;;;7.65;;
34403;SDS011;23116;47.660;9.126;2024-03-08T16:36:10;8.82;;;7.78;;
34403;SDS011;23116;47.660;9.126;2024-03-08T16:38:58;9.20;;;8.02;;
34403;SDS011;23116;47.660;9.126;2024-03-08T16:41:48;8.93;;;7.78;;
34403;SDS011;23116;47.660;9.126;2024-03-08T16:44:35;8.50;;;7.03;;
34403;SDS011;23116;47.660;9.126;2024-03-08T16:47:22;9.07;;;7.10;;
34403;SDS011;23116;47.660;9.126;2024-03-08T16:50:09;8.98;;;7.55;;
34403;SDS011;23116;47.660;9.126;2024-03-08T16:53:00;8.85;;;7.10;;
34403;SDS011;23116;47.660;9.126;2024-03-08T16:55:49;8.27;;;7.32;;
34403;SDS011;23116;47.660;9.126;2024-03-08T16:58:37;7.82;;;6.85;;
34403;SDS011;23116;47.660;9.126;2024-03-08T17:01:27;9.00;;;6.65;;
34403;SDS011;23116;47.660;9.126;2024-03-08T17:04:14;10.35;;;8.95;;
34403;SDS011;23116;47.660;9.126;2024-03-08T17:07:03;9.18;;;7.85;;
34403;SDS011;23116;47.660;9.126;2024-03-08T17:09:51;9.35;;;7.65;;
34403;SDS011;23116;47.660;9.126;2024-03-08T17:12:38;8.70;;;7.32;;
34403;SDS011;23116;47.660;9.126;2024-03-08T17:15:25;11.02;;;7.55;;
34403;SDS011;23116;47.660;9.126;2024-03-08T17:18:13;11.05;;;7.25;;
34403;SDS011;23116;47.660;9.126;2024-03-08T17:21:00;10.10;;;6.97;;
34403;SDS011;23116;47.660;9.126;2024-03-08T17:23:48;7.43;;;6.03;;
34403;SDS011;23116;47.660;9.126;2024-03-08T17:26:35;7.13;;;6.35;;
34403;SDS011;23116;47.660;9.126;2024-03-08T17:29:22;7.45;;;6.40;;
34403;SDS011;23116;47.660;9.126;2024-03-08T17:32:09;7.07;;;6.38;;
34403;SDS011;23116;47.660;9.126;2024-03-08T17:34:55;8.40;;;6.90;;
34403;SDS011;23116;47.660;9.126;2024-03-08T17:37:42;7.18;;;6.15;;
34403;SDS011;23116;47.660;9.126;2024-03-08T17:40:36;7.97;;;6.22;;
34403;SDS011;23116;47.660;9.126;2024-03-08T17:43:24;7.68;;;6.88;;
34403;SDS011;23116;47.660;9.126;2024-03-08T17:46:12;6.18;;;5.15;;
34403;SDS011;23116;47.660;9.126;2024-03-08T17:48:59;8.05;;;6.18;;
34403;SDS011;23116;47.660;9.126;2024-03-08T17:51:46;9.60;;;8.00;;
34403;SDS011;23116;47.660;9.126;2024-03-08T17:54:32;10.20;;;8.00;;
34403;SDS011;23116;47.660;9.126;2024-03-08T17:57:19;8.77;;;7.75;;
34403;SDS011;23116;47.660;9.126;2024-03-08T18:00:09;10.90;;;8.52;;
34403;SDS011;23116;47.660;9.126;2024-03-08T18:03:04;10.00;;;8.90;;
34403;SDS011;23116;47.660;9.126;2024-03-08T18:05:54;10.00;;;7.78;;
34403;SDS011;23116;47.660;9.126;2024-03-08T18:08:41;10.25;;;8.70;;
34403;SDS011;23116;47.660;9.126;2024-03-08T18:11:29;11.00;;;8.75;;
34403;SDS011;23116;47.660;9.126;2024-03-08T18:14:16;9.68;;;8.68;;
34403;SDS011;23116;47.660;9.126;2024-03-08T18:17:03;10.25;;;8.57;;
34403;SDS011;23116;47.660;9.126;2024-03-08T18:19:51;9.07;;;7.05;;
34403;SDS011;23116;47.660;9.126;2024-03-08T18:22:38;8.52;;;7.03;;
34403;SDS011;23116;47.660;9.126;2024-03-08T18:25:25;7.90;;;6.53;;
34403;SDS011;23116;47.660;9.126;2024-03-08T18:28:13;8.48;;;7.20;;
34403;SDS011;23116;47.660;9.126;2024-03-08T18:31:02;9.18;;;6.90;;
34403;SDS011;23116;47.660;9.126;2024-03-08T18:33:49;9.88;;;7.13;;
34403;SDS011;23116;47.660;9.126;2024-03-08T18:36:35;9.35;;;7.30;;
34403;SDS011;23116;47.660;9.126;2024-03-08T18:39:24;10.63;;;7.78;;
34403;SDS011;23116;47.660;9.126;2024-03-08T18:42:12;8.55;;;7.07;;
34403;SDS011;23116;47.660;9.126;2024-03-08T18:44:59;11.00;;;8.23;;
34403;SDS011;23116;47.660;9.126;2024-03-08T18:47:52;9.80;;;8.52;;
34403;SDS011;23116;47.660;9.126;2024-03-08T18:50:41;10.75;;;9.52;;
34403;SDS011;23116;47.660;9.126;2024-03-08T18:53:30;11.27;;;9.23;;